sensor_id;sensor_type;location;lat;lon;timestamp;temperature;humidity
57833;DHT22;43667;53.036;6.740;2022-09-12T00:01:48;14.40;99.90
57833;DHT22;43667;53.036;6.740;2022-09-12T00:04:13;14.30;99.90
57833;DHT22;43667;53.036;6.740;2022-09-12T00:06:39;14.30;99.90
57833;DHT22;43667;53.036;6.740;2022-09-12T00:09:07;14.30;99.90
57833;DHT22;43667;53.036;6.740;2022-09-12T00:11:35;14.20;99.90
57833;DHT22;43667;53.036;6.740;2022-09-12T00:14:02;14.20;99.90
57833;DHT22;43667;53.036;6.740;2022-09-12T00:16:30;14.20;99.90
57833;DHT22;43667;53.036;6.740;2022-09-12T00:18:56;14.20;99.90
57833;DHT22;43667;53.036;6.740;2022-09-12T00:21:22;14.10;99.90
57833;DHT22;43667;53.036;6.740;2022-09-12T00:23:49;14.10;99.90
57833;DHT22;43667;53.036;6.740;2022-09-12T00:26:16;14.10;99.90
57833;DHT22;43667;53.036;6.740;2022-09-12T00:28:42;14.10;99.90
57833;DHT22;43667;53.036;6.740;2022-09-12T00:31:13;14.10;99.90
57833;DHT22;43667;53.036;6.740;2022-09-12T00:33:40;14.10;99.90
57833;DHT22;43667;53.036;6.740;2022-09-12T00:36:14;14.00;99.90
57833;DHT22;43667;53.036;6.740;2022-09-12T00:38:41;14.00;99.90
57833;DHT22;43667;53.036;6.740;2022-09-12T00:41:24;13.90;99.90
57833;DHT22;43667;53.036;6.740;2022-09-12T00:43:55;13.90;99.90
57833;DHT22;43667;53.036;6.740;2022-09-12T00:49:00;13.90;99.90
57833;DHT22;43667;53.036;6.740;2022-09-12T00:51:28;13.90;99.90
57833;DHT22;43667;53.036;6.740;2022-09-12T00:53:56;13.90;99.90
57833;DHT22;43667;53.036;6.740;2022-09-12T00:56:24;13.90;99.90
57833;DHT22;43667;53.036;6.740;2022-09-12T00:58:56;13.80;99.90
57833;DHT22;43667;53.036;6.740;2022-09-12T01:01:24;13.80;99.90
57833;DHT22;43667;53.036;6.740;2022-09-12T01:03:50;13.80;99.90
57833;DHT22;43667;53.036;6.740;2022-09-12T01:06:26;13.80;99.90
57833;DHT22;43667;53.036;6.740;2022-09-12T01:08:53;13.70;99.90
57833;DHT22;43667;53.036;6.740;2022-09-12T01:11:20;13.70;99.90
57833;DHT22;43667;53.036;6.740;2022-09-12T01:13:47;13.70;99.90
57833;DHT22;43667;53.036;6.740;2022-09-12T01:16:13;13.70;99.90
57833;DHT22;43667;53.036;6.740;2022-09-12T01:27:25;13.60;99.90
57833;DHT22;43667;53.036;6.740;2022-09-12T01:36:08;13.50;99.90
57833;DHT22;43667;53.036;6.740;2022-09-12T01:49:31;13.40;99.90
57833;DHT22;43667;53.036;6.740;2022-09-12T01:52:08;13.40;99.90
57833;DHT22;43667;53.036;6.740;2022-09-12T01:54:45;13.30;99.90
57833;DHT22;43667;53.036;6.740;2022-09-12T01:57:32;13.30;99.90
57833;DHT22;43667;53.036;6.740;2022-09-12T02:00:05;13.30;99.90
57833;DHT22;43667;53.036;6.740;2022-09-12T02:05:33;13.30;99.90
57833;DHT22;43667;53.036;6.740;2022-09-12T02:08:05;13.30;99.90
57833;DHT22;43667;53.036;6.740;2022-09-12T02:10:40;13.20;99.90
57833;DHT22;43667;53.036;6.740;2022-09-12T02:13:18;13.20;99.90
57833;DHT22;43667;53.036;6.740;2022-09-12T02:15:49;13.20;99.90
57833;DHT22;43667;53.036;6.740;2022-09-12T02:18:17;13.20;99.90
57833;DHT22;43667;53.036;6.740;2022-09-12T02:20:46;13.20;99.90
57833;DHT22;43667;53.036;6.740;2022-09-12T02:23:32;13.20;99.90
57833;DHT22;43667;53.036;6.740;2022-09-12T02:26:05;13.20;99.90
57833;DHT22;43667;53.036;6.740;2022-09-12T02:28:35;13.20;99.90
57833;DHT22;43667;53.036;6.740;2022-09-12T02:31:16;13.20;99.90
57833;DHT22;43667;53.036;6.740;2022-09-12T02:38:56;13.10;99.90
57833;DHT22;43667;53.036;6.740;2022-09-12T02:41:22;13.10;99.90
57833;DHT22;43667;53.036;6.740;2022-09-12T02:43:49;13.10;99.90
57833;DHT22;43667;53.036;6.740;2022-09-12T02:46:21;13.10;99.90
57833;DHT22;43667;53.036;6.740;2022-09-12T02:48:47;13.10;99.90
57833;DHT22;43667;53.036;6.740;2022-09-12T02:51:13;13.10;99.90
57833;DHT22;43667;53.036;6.740;2022-09-12T02:53:40;13.10;99.90
57833;DHT22;43667;53.036;6.740;2022-09-12T02:56:11;13.00;99.90
57833;DHT22;43667;53.036;6.740;2022-09-12T02:58:38;13.00;99.90
57833;DHT22;43667;53.036;6.740;2022-09-12T03:01:20;13.00;99.90
57833;DHT22;43667;53.036;6.740;2022-09-12T03:04:00;13.00;99.90
57833;DHT22;43667;53.036;6.740;2022-09-12T03:06:36;13.00;99.90
57833;DHT22;43667;53.036;6.740;2022-09-12T03:12:25;13.00;99.90
57833;DHT22;43667;53.036;6.740;2022-09-12T03:17:24;13.00;99.90
57833;DHT22;43667;53.036;6.740;2022-09-12T03:20:01;13.00;99.90
57833;DHT22;43667;53.036;6.740;2022-09-12T03:22:34;13.00;99.90
57833;DHT22;43667;53.036;6.740;2022-09-12T03:25:19;13.00;99.90
57833;DHT22;43667;53.036;6.740;2022-09-12T03:27:59;13.00;99.90
57833;DHT22;43667;53.036;6.740;2022-09-12T03:30:26;13.00;99.90
57833;DHT22;43667;53.036;6.740;2022-09-12T03:32:53;13.00;99.90
57833;DHT22;43667;53.036;6.740;2022-09-12T03:35:21;13.00;99.90
57833;DHT22;43667;53.036;6.740;2022-09-12T03:37:48;13.00;99.90
57833;DHT22;43667;53.036;6.740;2022-09-12T03:40:14;13.00;99.90
57833;DHT22;43667;53.036;6.740;2022-09-12T03:42:40;12.90;99.90
57833;DHT22;43667;53.036;6.740;2022-09-12T03:45:07;12.90;99.90
57833;DHT22;43667;53.036;6.740;2022-09-12T03:47:33;13.00;99.90
57833;DHT22;43667;53.036;6.740;2022-09-12T03:49:58;12.90;99.90
57833;DHT22;43667;53.036;6.740;2022-09-12T03:52:24;12.90;99.90
57833;DHT22;43667;53.036;6.740;2022-09-12T03:54:50;12.90;99.90
57833;DHT22;43667;53.036;6.740;2022-09-12T03:57:15;12.90;99.90
57833;DHT22;43667;53.036;6.740;2022-09-12T03:59:41;12.90;99.90
57833;DHT22;43667;53.036;6.740;2022-09-12T04:02:06;12.90;99.90
57833;DHT22;43667;53.036;6.740;2022-09-12T04:04:34;12.90;99.90
57833;DHT22;43667;53.036;6.740;2022-09-12T04:06:59;12.80;99.90
57833;DHT22;43667;53.036;6.740;2022-09-12T04:09:25;12.80;99.90
57833;DHT22;43667;53.036;6.740;2022-09-12T04:11:50;12.80;99.90
57833;DHT22;43667;53.036;6.740;2022-09-12T04:14:16;12.80;99.90
57833;DHT22;43667;53.036;6.740;2022-09-12T04:16:42;12.80;99.90
57833;DHT22;43667;53.036;6.740;2022-09-12T04:19:09;12.70;99.90
57833;DHT22;43667;53.036;6.740;2022-09-12T04:21:36;12.70;99.90
57833;DHT22;43667;53.036;6.740;2022-09-12T04:24:02;12.70;99.90
57833;DHT22;43667;53.036;6.740;2022-09-12T04:26:28;12.70;99.90
57833;DHT22;43667;53.036;6.740;2022-09-12T04:28:54;12.70;99.90
57833;DHT22;43667;53.036;6.740;2022-09-12T04:31:23;12.60;99.90
57833;DHT22;43667;53.036;6.740;2022-09-12T04:33:59;12.60;99.90
57833;DHT22;43667;53.036;6.740;2022-09-12T04:36:27;12.60;99.90
57833;DHT22;43667;53.036;6.740;2022-09-12T04:38:54;12.60;99.90
57833;DHT22;43667;53.036;6.740;2022-09-12T04:41:23;12.60;99.90
57833;DHT22;43667;53.036;6.740;2022-09-12T04:44:10;12.60;99.90
57833;DHT22;43667;53.036;6.740;2022-09-12T04:46:39;12.50;99.90
57833;DHT22;43667;53.036;6.740;2022-09-12T04:49:05;12.50;99.90
57833;DHT22;43667;53.036;6.740;2022-09-12T04:51:33;12.50;99.90
57833;DHT22;43667;53.036;6.740;2022-09-12T04:54:03;12.50;99.90
57833;DHT22;43667;53.036;6.740;2022-09-12T04:56:30;12.50;99.90
57833;DHT22;43667;53.036;6.740;2022-09-12T04:58:57;12.50;99.90
57833;DHT22;43667;53.036;6.740;2022-09-12T05:01:23;12.50;99.90
57833;DHT22;43667;53.036;6.740;2022-09-12T05:03:49;12.60;99.90
57833;DHT22;43667;53.036;6.740;2022-09-12T05:06:20;12.60;99.90
57833;DHT22;43667;53.036;6.740;2022-09-12T05:08:46;12.60;99.90
57833;DHT22;43667;53.036;6.740;2022-09-12T05:11:21;12.60;99.90
57833;DHT22;43667;53.036;6.740;2022-09-12T05:13:47;12.70;99.90
57833;DHT22;43667;53.036;6.740;2022-09-12T05:16:14;12.70;99.90
57833;DHT22;43667;53.036;6.740;2022-09-12T05:18:41;12.70;99.90
57833;DHT22;43667;53.036;6.740;2022-09-12T05:21:10;12.80;99.90
57833;DHT22;43667;53.036;6.740;2022-09-12T05:23:35;12.80;99.90
57833;DHT22;43667;53.036;6.740;2022-09-12T05:26:03;12.90;99.90
57833;DHT22;43667;53.036;6.740;2022-09-12T05:28:31;13.00;99.90
57833;DHT22;43667;53.036;6.740;2022-09-12T05:31:22;13.00;99.90
57833;DHT22;43667;53.036;6.740;2022-09-12T05:33:49;13.10;99.90
57833;DHT22;43667;53.036;6.740;2022-09-12T05:36:20;13.20;99.90
57833;DHT22;43667;53.036;6.740;2022-09-12T05:38:47;13.20;99.90
57833;DHT22;43667;53.036;6.740;2022-09-12T05:41:24;13.30;99.90
57833;DHT22;43667;53.036;6.740;2022-09-12T05:43:55;13.40;99.90
57833;DHT22;43667;53.036;6.740;2022-09-12T05:46:23;13.40;99.90
57833;DHT22;43667;53.036;6.740;2022-09-12T05:48:50;13.50;99.90
57833;DHT22;43667;53.036;6.740;2022-09-12T05:51:17;13.50;99.90
57833;DHT22;43667;53.036;6.740;2022-09-12T05:53:46;13.60;99.90
57833;DHT22;43667;53.036;6.740;2022-09-12T05:56:16;13.60;99.90
57833;DHT22;43667;53.036;6.740;2022-09-12T05:58:44;13.70;99.90
57833;DHT22;43667;53.036;6.740;2022-09-12T06:01:12;13.70;99.90
57833;DHT22;43667;53.036;6.740;2022-09-12T06:03:40;13.80;99.90
57833;DHT22;43667;53.036;6.740;2022-09-12T06:06:07;13.90;99.90
57833;DHT22;43667;53.036;6.740;2022-09-12T06:08:34;13.90;99.90
57833;DHT22;43667;53.036;6.740;2022-09-12T06:11:04;14.00;99.90
57833;DHT22;43667;53.036;6.740;2022-09-12T06:13:35;14.00;99.90
57833;DHT22;43667;53.036;6.740;2022-09-12T06:16:09;14.00;99.90
57833;DHT22;43667;53.036;6.740;2022-09-12T06:18:36;14.10;99.90
57833;DHT22;43667;53.036;6.740;2022-09-12T06:21:09;14.10;99.90
57833;DHT22;43667;53.036;6.740;2022-09-12T06:23:36;14.10;99.90
57833;DHT22;43667;53.036;6.740;2022-09-12T06:26:03;14.20;99.90
57833;DHT22;43667;53.036;6.740;2022-09-12T06:28:29;14.20;99.90
57833;DHT22;43667;53.036;6.740;2022-09-12T06:31:09;14.20;99.90
57833;DHT22;43667;53.036;6.740;2022-09-12T06:33:37;14.30;99.90
57833;DHT22;43667;53.036;6.740;2022-09-12T06:36:08;14.30;99.90
57833;DHT22;43667;53.036;6.740;2022-09-12T06:38:34;14.40;99.90
57833;DHT22;43667;53.036;6.740;2022-09-12T06:41:02;14.40;99.90
57833;DHT22;43667;53.036;6.740;2022-09-12T06:43:29;14.50;99.90
57833;DHT22;43667;53.036;6.740;2022-09-12T06:45:55;14.60;99.90
57833;DHT22;43667;53.036;6.740;2022-09-12T06:48:21;14.60;99.90
57833;DHT22;43667;53.036;6.740;2022-09-12T06:51:01;14.70;99.90
57833;DHT22;43667;53.036;6.740;2022-09-12T06:53:28;14.80;99.90
57833;DHT22;43667;53.036;6.740;2022-09-12T06:55:58;14.80;99.90
57833;DHT22;43667;53.036;6.740;2022-09-12T06:58:25;14.90;99.90
57833;DHT22;43667;53.036;6.740;2022-09-12T07:00:51;14.90;99.90
57833;DHT22;43667;53.036;6.740;2022-09-12T07:03:17;15.00;99.90
57833;DHT22;43667;53.036;6.740;2022-09-12T07:05:44;15.10;99.90
57833;DHT22;43667;53.036;6.740;2022-09-12T07:08:10;15.10;99.90
57833;DHT22;43667;53.036;6.740;2022-09-12T07:10:35;15.20;99.90
57833;DHT22;43667;53.036;6.740;2022-09-12T07:13:01;15.20;99.90
57833;DHT22;43667;53.036;6.740;2022-09-12T07:15:26;15.30;99.90
57833;DHT22;43667;53.036;6.740;2022-09-12T07:17:53;15.40;99.90
57833;DHT22;43667;53.036;6.740;2022-09-12T07:20:18;15.40;99.90
57833;DHT22;43667;53.036;6.740;2022-09-12T07:22:44;15.40;99.90
57833;DHT22;43667;53.036;6.740;2022-09-12T07:25:09;15.50;99.90
57833;DHT22;43667;53.036;6.740;2022-09-12T07:27:35;15.50;99.90
57833;DHT22;43667;53.036;6.740;2022-09-12T07:30:04;15.60;99.90
57833;DHT22;43667;53.036;6.740;2022-09-12T07:32:32;15.70;99.90
57833;DHT22;43667;53.036;6.740;2022-09-12T07:34:57;15.70;99.90
57833;DHT22;43667;53.036;6.740;2022-09-12T07:37:23;15.80;99.90
57833;DHT22;43667;53.036;6.740;2022-09-12T07:39:48;15.90;99.90
57833;DHT22;43667;53.036;6.740;2022-09-12T07:42:14;15.90;99.90
57833;DHT22;43667;53.036;6.740;2022-09-12T07:44:40;16.10;99.90
57833;DHT22;43667;53.036;6.740;2022-09-12T07:47:05;16.20;99.90
57833;DHT22;43667;53.036;6.740;2022-09-12T07:49:31;16.20;99.90
57833;DHT22;43667;53.036;6.740;2022-09-12T07:51:56;16.40;99.90
57833;DHT22;43667;53.036;6.740;2022-09-12T07:54:22;16.50;99.90
57833;DHT22;43667;53.036;6.740;2022-09-12T07:56:48;16.60;99.90
57833;DHT22;43667;53.036;6.740;2022-09-12T07:59:14;16.80;99.90
57833;DHT22;43667;53.036;6.740;2022-09-12T08:01:40;17.00;99.90
57833;DHT22;43667;53.036;6.740;2022-09-12T08:04:06;17.10;99.90
57833;DHT22;43667;53.036;6.740;2022-09-12T08:06:32;17.10;99.90
57833;DHT22;43667;53.036;6.740;2022-09-12T08:09:00;17.10;99.90
57833;DHT22;43667;53.036;6.740;2022-09-12T08:11:27;17.20;99.90
57833;DHT22;43667;53.036;6.740;2022-09-12T08:13:53;17.20;99.90
57833;DHT22;43667;53.036;6.740;2022-09-12T08:16:23;17.20;99.90
57833;DHT22;43667;53.036;6.740;2022-09-12T08:18:49;17.20;99.90
57833;DHT22;43667;53.036;6.740;2022-09-12T08:21:26;17.30;99.90
57833;DHT22;43667;53.036;6.740;2022-09-12T08:24:01;17.30;99.90
57833;DHT22;43667;53.036;6.740;2022-09-12T08:26:27;17.40;99.90
57833;DHT22;43667;53.036;6.740;2022-09-12T08:28:53;17.50;99.90
57833;DHT22;43667;53.036;6.740;2022-09-12T08:31:21;17.60;99.90
57833;DHT22;43667;53.036;6.740;2022-09-12T08:33:47;17.70;99.90
57833;DHT22;43667;53.036;6.740;2022-09-12T08:36:15;17.70;99.90
57833;DHT22;43667;53.036;6.740;2022-09-12T08:38:43;17.80;99.90
57833;DHT22;43667;53.036;6.740;2022-09-12T08:47:09;18.10;99.90
57833;DHT22;43667;53.036;6.740;2022-09-12T08:49:58;18.10;99.90
57833;DHT22;43667;53.036;6.740;2022-09-12T08:55:01;18.20;99.90
57833;DHT22;43667;53.036;6.740;2022-09-12T08:57:27;18.30;99.90
57833;DHT22;43667;53.036;6.740;2022-09-12T08:59:53;18.40;99.90
57833;DHT22;43667;53.036;6.740;2022-09-12T09:02:26;18.40;99.90
57833;DHT22;43667;53.036;6.740;2022-09-12T09:05:24;18.50;99.90
57833;DHT22;43667;53.036;6.740;2022-09-12T09:08:03;18.50;99.90
57833;DHT22;43667;53.036;6.740;2022-09-12T09:13:52;18.60;99.90
57833;DHT22;43667;53.036;6.740;2022-09-12T09:16:41;18.60;99.90
57833;DHT22;43667;53.036;6.740;2022-09-12T09:19:31;18.80;99.90
57833;DHT22;43667;53.036;6.740;2022-09-12T09:22:02;18.90;99.90
57833;DHT22;43667;53.036;6.740;2022-09-12T09:24:37;19.10;99.90
57833;DHT22;43667;53.036;6.740;2022-09-12T09:27:30;19.20;99.90
57833;DHT22;43667;53.036;6.740;2022-09-12T09:29:56;19.40;99.90
57833;DHT22;43667;53.036;6.740;2022-09-12T09:32:27;19.50;99.90
57833;DHT22;43667;53.036;6.740;2022-09-12T09:34:54;19.60;99.90
57833;DHT22;43667;53.036;6.740;2022-09-12T09:40:19;20.00;99.90
57833;DHT22;43667;53.036;6.740;2022-09-12T09:45:32;20.50;99.90
57833;DHT22;43667;53.036;6.740;2022-09-12T09:48:23;20.70;99.90
57833;DHT22;43667;53.036;6.740;2022-09-12T09:50:50;21.00;99.90
57833;DHT22;43667;53.036;6.740;2022-09-12T09:56:18;21.30;99.90
57833;DHT22;43667;53.036;6.740;2022-09-12T09:58:48;21.50;99.90
57833;DHT22;43667;53.036;6.740;2022-09-12T10:01:15;21.50;99.90
57833;DHT22;43667;53.036;6.740;2022-09-12T10:03:52;21.60;99.90
57833;DHT22;43667;53.036;6.740;2022-09-12T10:08:44;21.90;99.90
57833;DHT22;43667;53.036;6.740;2022-09-12T10:11:19;22.10;99.90
57833;DHT22;43667;53.036;6.740;2022-09-12T10:13:52;22.30;99.90
57833;DHT22;43667;53.036;6.740;2022-09-12T10:16:27;22.60;99.90
57833;DHT22;43667;53.036;6.740;2022-09-12T10:18:55;22.70;99.90
57833;DHT22;43667;53.036;6.740;2022-09-12T10:23:56;23.00;99.90
57833;DHT22;43667;53.036;6.740;2022-09-12T10:26:24;22.90;99.90
57833;DHT22;43667;53.036;6.740;2022-09-12T10:28:52;22.90;99.90
57833;DHT22;43667;53.036;6.740;2022-09-12T10:31:27;22.90;99.90
57833;DHT22;43667;53.036;6.740;2022-09-12T10:33:58;23.00;99.90
57833;DHT22;43667;53.036;6.740;2022-09-12T10:36:33;23.10;99.80
57833;DHT22;43667;53.036;6.740;2022-09-12T10:39:00;23.10;98.60
57833;DHT22;43667;53.036;6.740;2022-09-12T10:41:37;23.10;98.70
57833;DHT22;43667;53.036;6.740;2022-09-12T10:44:12;23.20;98.30
57833;DHT22;43667;53.036;6.740;2022-09-12T10:46:38;23.30;97.80
57833;DHT22;43667;53.036;6.740;2022-09-12T10:49:24;23.30;97.60
57833;DHT22;43667;53.036;6.740;2022-09-12T10:51:52;23.40;96.60
57833;DHT22;43667;53.036;6.740;2022-09-12T10:54:21;23.50;97.50
57833;DHT22;43667;53.036;6.740;2022-09-12T11:00:03;23.80;96.40
57833;DHT22;43667;53.036;6.740;2022-09-12T11:03:04;23.90;95.70
57833;DHT22;43667;53.036;6.740;2022-09-12T11:05:52;24.00;92.80
57833;DHT22;43667;53.036;6.740;2022-09-12T11:08:35;24.20;93.10
57833;DHT22;43667;53.036;6.740;2022-09-12T11:30:06;24.40;86.50
57833;DHT22;43667;53.036;6.740;2022-09-12T11:35:33;24.60;88.30
57833;DHT22;43667;53.036;6.740;2022-09-12T11:38:22;24.80;87.50
57833;DHT22;43667;53.036;6.740;2022-09-12T11:41:10;25.00;79.30
57833;DHT22;43667;53.036;6.740;2022-09-12T11:43:43;25.10;79.10
57833;DHT22;43667;53.036;6.740;2022-09-12T11:46:38;25.00;77.20
57833;DHT22;43667;53.036;6.740;2022-09-12T11:54:20;25.00;76.70
57833;DHT22;43667;53.036;6.740;2022-09-12T11:56:52;25.10;76.10
57833;DHT22;43667;53.036;6.740;2022-09-12T11:59:34;25.10;75.90
57833;DHT22;43667;53.036;6.740;2022-09-12T12:02:11;25.10;70.90
57833;DHT22;43667;53.036;6.740;2022-09-12T12:07:37;25.00;71.40
57833;DHT22;43667;53.036;6.740;2022-09-12T12:10:04;25.00;71.90
57833;DHT22;43667;53.036;6.740;2022-09-12T12:12:31;25.00;74.50
57833;DHT22;43667;53.036;6.740;2022-09-12T12:14:57;24.90;72.40
57833;DHT22;43667;53.036;6.740;2022-09-12T12:17:24;24.90;72.80
57833;DHT22;43667;53.036;6.740;2022-09-12T12:20:02;24.90;75.70
57833;DHT22;43667;53.036;6.740;2022-09-12T12:22:29;25.00;75.80
57833;DHT22;43667;53.036;6.740;2022-09-12T12:27:58;25.00;68.50
57833;DHT22;43667;53.036;6.740;2022-09-12T12:35:38;25.40;73.90
57833;DHT22;43667;53.036;6.740;2022-09-12T12:38:32;25.50;70.00
57833;DHT22;43667;53.036;6.740;2022-09-12T12:43:46;25.60;62.50
57833;DHT22;43667;53.036;6.740;2022-09-12T12:46:14;25.60;62.60
57833;DHT22;43667;53.036;6.740;2022-09-12T12:49:27;25.60;64.50
57833;DHT22;43667;53.036;6.740;2022-09-12T12:51:47;25.60;64.90
57833;DHT22;43667;53.036;6.740;2022-09-12T12:57:21;25.90;64.10
57833;DHT22;43667;53.036;6.740;2022-09-12T12:59:53;25.80;63.90
57833;DHT22;43667;53.036;6.740;2022-09-12T13:02:27;25.80;63.60
57833;DHT22;43667;53.036;6.740;2022-09-12T13:04:55;25.70;63.60
57833;DHT22;43667;53.036;6.740;2022-09-12T13:07:26;25.70;63.60
57833;DHT22;43667;53.036;6.740;2022-09-12T13:09:53;25.70;63.40
57833;DHT22;43667;53.036;6.740;2022-09-12T13:12:25;25.80;63.80
57833;DHT22;43667;53.036;6.740;2022-09-12T13:14:57;25.80;65.40
57833;DHT22;43667;53.036;6.740;2022-09-12T13:17:40;25.80;65.30
57833;DHT22;43667;53.036;6.740;2022-09-12T13:20:23;25.90;64.90
57833;DHT22;43667;53.036;6.740;2022-09-12T13:22:51;25.80;65.00
57833;DHT22;43667;53.036;6.740;2022-09-12T13:25:18;25.80;66.20
57833;DHT22;43667;53.036;6.740;2022-09-12T13:30:26;25.90;63.50
57833;DHT22;43667;53.036;6.740;2022-09-12T13:32:55;25.90;63.10
57833;DHT22;43667;53.036;6.740;2022-09-12T13:35:47;25.80;61.80
57833;DHT22;43667;53.036;6.740;2022-09-12T13:43:45;25.70;62.10
57833;DHT22;43667;53.036;6.740;2022-09-12T13:46:14;25.80;63.50
57833;DHT22;43667;53.036;6.740;2022-09-12T13:48:42;25.80;62.80
57833;DHT22;43667;53.036;6.740;2022-09-12T13:51:20;25.80;63.30
57833;DHT22;43667;53.036;6.740;2022-09-12T13:53:47;25.80;62.80
57833;DHT22;43667;53.036;6.740;2022-09-12T13:56:17;25.80;64.50
57833;DHT22;43667;53.036;6.740;2022-09-12T13:58:55;25.80;61.40
57833;DHT22;43667;53.036;6.740;2022-09-12T14:01:41;25.90;63.10
57833;DHT22;43667;53.036;6.740;2022-09-12T14:04:22;26.00;64.20
57833;DHT22;43667;53.036;6.740;2022-09-12T14:07:21;26.10;61.70
57833;DHT22;43667;53.036;6.740;2022-09-12T14:09:58;26.10;61.60
57833;DHT22;43667;53.036;6.740;2022-09-12T14:12:36;26.20;61.70
57833;DHT22;43667;53.036;6.740;2022-09-12T14:15:02;26.10;60.50
57833;DHT22;43667;53.036;6.740;2022-09-12T14:17:32;26.00;59.70
57833;DHT22;43667;53.036;6.740;2022-09-12T14:20:01;25.90;58.10
57833;DHT22;43667;53.036;6.740;2022-09-12T14:22:28;25.80;60.80
57833;DHT22;43667;53.036;6.740;2022-09-12T14:24:55;25.80;59.00
57833;DHT22;43667;53.036;6.740;2022-09-12T14:27:24;25.80;59.00
57833;DHT22;43667;53.036;6.740;2022-09-12T14:30:18;25.80;59.90
57833;DHT22;43667;53.036;6.740;2022-09-12T14:35:43;25.80;59.80
57833;DHT22;43667;53.036;6.740;2022-09-12T14:40:46;25.80;59.10
57833;DHT22;43667;53.036;6.740;2022-09-12T14:43:26;25.80;61.10
57833;DHT22;43667;53.036;6.740;2022-09-12T14:46:16;25.80;60.20
57833;DHT22;43667;53.036;6.740;2022-09-12T14:48:52;25.80;60.00
57833;DHT22;43667;53.036;6.740;2022-09-12T14:51:24;25.80;62.10
57833;DHT22;43667;53.036;6.740;2022-09-12T14:53:50;25.80;59.90
57833;DHT22;43667;53.036;6.740;2022-09-12T14:56:16;25.80;60.60
57833;DHT22;43667;53.036;6.740;2022-09-12T14:58:44;25.80;60.30
57833;DHT22;43667;53.036;6.740;2022-09-12T15:03:48;25.70;62.30
57833;DHT22;43667;53.036;6.740;2022-09-12T15:06:22;25.80;60.60
57833;DHT22;43667;53.036;6.740;2022-09-12T15:08:48;25.80;59.40
57833;DHT22;43667;53.036;6.740;2022-09-12T15:11:16;25.90;58.70
57833;DHT22;43667;53.036;6.740;2022-09-12T15:13:42;25.90;58.80
57833;DHT22;43667;53.036;6.740;2022-09-12T15:16:09;26.00;59.80
57833;DHT22;43667;53.036;6.740;2022-09-12T15:18:35;26.10;59.10
57833;DHT22;43667;53.036;6.740;2022-09-12T15:21:03;26.20;59.60
57833;DHT22;43667;53.036;6.740;2022-09-12T15:23:48;26.40;60.50
57833;DHT22;43667;53.036;6.740;2022-09-12T15:26:23;26.60;57.70
57833;DHT22;43667;53.036;6.740;2022-09-12T15:28:51;26.80;55.90
57833;DHT22;43667;53.036;6.740;2022-09-12T15:31:27;27.00;56.30
57833;DHT22;43667;53.036;6.740;2022-09-12T15:33:54;27.20;56.40
57833;DHT22;43667;53.036;6.740;2022-09-12T15:36:21;27.40;55.80
57833;DHT22;43667;53.036;6.740;2022-09-12T15:38:48;27.80;54.40
57833;DHT22;43667;53.036;6.740;2022-09-12T15:41:28;27.90;54.70
57833;DHT22;43667;53.036;6.740;2022-09-12T15:43:55;27.90;54.00
57833;DHT22;43667;53.036;6.740;2022-09-12T15:46:21;27.80;54.10
57833;DHT22;43667;53.036;6.740;2022-09-12T15:48:47;27.60;53.40
57833;DHT22;43667;53.036;6.740;2022-09-12T15:51:15;27.60;54.00
57833;DHT22;43667;53.036;6.740;2022-09-12T15:53:41;27.60;52.50
57833;DHT22;43667;53.036;6.740;2022-09-12T15:56:07;27.50;52.10
57833;DHT22;43667;53.036;6.740;2022-09-12T15:58:33;27.40;51.90
57833;DHT22;43667;53.036;6.740;2022-09-12T16:00:59;27.30;52.30
57833;DHT22;43667;53.036;6.740;2022-09-12T16:03:26;27.10;52.50
57833;DHT22;43667;53.036;6.740;2022-09-12T16:05:57;26.90;53.30
57833;DHT22;43667;53.036;6.740;2022-09-12T16:08:24;26.60;55.30
57833;DHT22;43667;53.036;6.740;2022-09-12T16:10:54;26.30;56.20
57833;DHT22;43667;53.036;6.740;2022-09-12T16:13:21;26.10;57.40
57833;DHT22;43667;53.036;6.740;2022-09-12T16:15:47;25.80;56.80
57833;DHT22;43667;53.036;6.740;2022-09-12T16:18:13;25.60;57.10
57833;DHT22;43667;53.036;6.740;2022-09-12T16:20:40;25.30;57.90
57833;DHT22;43667;53.036;6.740;2022-09-12T16:23:06;25.10;59.60
57833;DHT22;43667;53.036;6.740;2022-09-12T16:25:33;24.90;61.00
57833;DHT22;43667;53.036;6.740;2022-09-12T16:27:59;24.80;61.20
57833;DHT22;43667;53.036;6.740;2022-09-12T16:30:26;24.60;61.80
57833;DHT22;43667;53.036;6.740;2022-09-12T16:32:51;24.50;65.00
57833;DHT22;43667;53.036;6.740;2022-09-12T16:35:17;24.40;65.70
57833;DHT22;43667;53.036;6.740;2022-09-12T16:37:42;24.30;67.60
57833;DHT22;43667;53.036;6.740;2022-09-12T16:40:08;24.30;65.00
57833;DHT22;43667;53.036;6.740;2022-09-12T16:42:34;24.20;68.20
57833;DHT22;43667;53.036;6.740;2022-09-12T16:45:00;24.10;72.00
57833;DHT22;43667;53.036;6.740;2022-09-12T16:47:26;24.00;73.90
57833;DHT22;43667;53.036;6.740;2022-09-12T16:49:56;23.90;76.20
57833;DHT22;43667;53.036;6.740;2022-09-12T16:52:23;23.80;78.30
57833;DHT22;43667;53.036;6.740;2022-09-12T16:54:49;23.70;78.10
57833;DHT22;43667;53.036;6.740;2022-09-12T16:57:14;23.60;80.80
57833;DHT22;43667;53.036;6.740;2022-09-12T16:59:40;23.50;84.30
57833;DHT22;43667;53.036;6.740;2022-09-12T17:02:06;23.40;85.60
57833;DHT22;43667;53.036;6.740;2022-09-12T17:04:32;23.30;87.20
57833;DHT22;43667;53.036;6.740;2022-09-12T17:06:57;23.20;90.30
57833;DHT22;43667;53.036;6.740;2022-09-12T17:09:24;23.10;91.40
57833;DHT22;43667;53.036;6.740;2022-09-12T17:11:50;23.00;92.00
57833;DHT22;43667;53.036;6.740;2022-09-12T17:14:17;22.90;93.00
57833;DHT22;43667;53.036;6.740;2022-09-12T17:16:44;22.70;93.50
57833;DHT22;43667;53.036;6.740;2022-09-12T17:19:17;22.70;93.30
57833;DHT22;43667;53.036;6.740;2022-09-12T17:21:44;22.60;93.60
57833;DHT22;43667;53.036;6.740;2022-09-12T17:24:11;22.50;94.90
57833;DHT22;43667;53.036;6.740;2022-09-12T17:26:37;22.40;96.30
57833;DHT22;43667;53.036;6.740;2022-09-12T17:29:03;22.30;97.00
57833;DHT22;43667;53.036;6.740;2022-09-12T17:31:29;22.20;97.40
57833;DHT22;43667;53.036;6.740;2022-09-12T17:33:59;22.10;97.50
57833;DHT22;43667;53.036;6.740;2022-09-12T17:36:26;22.00;97.50
57833;DHT22;43667;53.036;6.740;2022-09-12T17:38:52;21.90;97.70
57833;DHT22;43667;53.036;6.740;2022-09-12T17:41:21;21.80;98.30
57833;DHT22;43667;53.036;6.740;2022-09-12T17:43:48;21.70;98.30
57833;DHT22;43667;53.036;6.740;2022-09-12T17:46:19;21.60;98.70
57833;DHT22;43667;53.036;6.740;2022-09-12T17:48:52;21.50;99.60
57833;DHT22;43667;53.036;6.740;2022-09-12T17:51:18;21.40;99.90
57833;DHT22;43667;53.036;6.740;2022-09-12T17:53:43;21.30;99.80
57833;DHT22;43667;53.036;6.740;2022-09-12T17:56:10;21.20;99.90
57833;DHT22;43667;53.036;6.740;2022-09-12T17:58:36;21.10;99.90
57833;DHT22;43667;53.036;6.740;2022-09-12T18:01:02;21.10;99.90